createdAt,value
2017-12-06T00:00:23.995Z,958.0
2017-12-06T00:01:32.211Z,958.0
2017-12-06T00:02:40.411Z,958.0
2017-12-06T00:03:48.380Z,958.0
2017-12-06T00:04:56.466Z,958.0
2017-12-06T00:06:04.696Z,958.0
2017-12-06T00:07:12.640Z,958.0
2017-12-06T00:08:20.786Z,958.0
2017-12-06T00:09:28.820Z,958.0
2017-12-06T00:10:36.966Z,958.0
2017-12-06T00:11:45.119Z,958.0
2017-12-06T00:12:53.285Z,958.0
2017-12-06T00:14:01.294Z,958.0
2017-12-06T00:15:09.408Z,957.9
2017-12-06T00:16:17.350Z,958.0
2017-12-06T00:17:25.443Z,957.9
2017-12-06T00:18:33.553Z,957.9
2017-12-06T00:19:41.684Z,958.0
2017-12-06T00:20:49.712Z,958.0
2017-12-06T00:21:57.801Z,957.9
2017-12-06T00:23:05.885Z,957.9
2017-12-06T00:24:14.016Z,957.9
2017-12-06T00:25:22.182Z,957.9
2017-12-06T00:26:30.149Z,958.0
2017-12-06T00:27:38.291Z,958.0
2017-12-06T00:28:46.323Z,958.0
2017-12-06T00:29:54.411Z,958.0
2017-12-06T00:31:02.616Z,958.0
2017-12-06T00:32:10.584Z,958.0
2017-12-06T00:33:18.673Z,958.0
2017-12-06T00:34:26.813Z,958.0
2017-12-06T00:35:34.846Z,958.0
2017-12-06T00:36:43.054Z,958.0
2017-12-06T00:37:51.022Z,957.9
2017-12-06T00:38:59.274Z,958.0
2017-12-06T00:40:07.205Z,957.9
2017-12-06T00:41:15.290Z,957.9
2017-12-06T00:42:23.436Z,958.0
2017-12-06T00:43:31.633Z,957.9
2017-12-06T00:44:39.553Z,958.0
2017-12-06T00:45:47.642Z,958.0
2017-12-06T00:46:55.864Z,958.0
2017-12-06T00:48:04.067Z,958.0
2017-12-06T00:49:11.903Z,958.0
2017-12-06T00:50:19.988Z,958.0
2017-12-06T00:51:28.080Z,958.0
2017-12-06T00:52:36.199Z,958.0
2017-12-06T00:53:44.311Z,958.0
2017-12-06T00:54:52.342Z,958.0
2017-12-06T00:56:00.429Z,958.0
2017-12-06T00:57:08.628Z,958.0
2017-12-06T00:58:16.602Z,958.0
2017-12-06T00:59:24.813Z,958.0
2017-12-06T01:00:32.777Z,958.0
2017-12-06T01:01:40.889Z,957.9
2017-12-06T01:02:48.956Z,957.9
2017-12-06T01:03:57.056Z,957.9
2017-12-06T01:05:05.250Z,957.9
2017-12-06T01:06:13.259Z,957.9
2017-12-06T01:07:21.306Z,957.9
2017-12-06T01:08:29.407Z,957.9
2017-12-06T01:09:37.493Z,957.9
2017-12-06T01:10:45.738Z,957.8
2017-12-06T01:11:53.673Z,957.9
2017-12-06T01:13:01.760Z,957.8
2017-12-06T01:14:09.848Z,957.9
2017-12-06T01:15:18.060Z,957.9
2017-12-06T01:16:26.079Z,957.9
2017-12-06T01:17:34.137Z,957.9
2017-12-06T01:18:42.216Z,957.8
2017-12-06T01:19:50.308Z,957.8
2017-12-06T01:20:58.390Z,957.8
2017-12-06T01:22:06.715Z,957.8
2017-12-06T01:23:14.866Z,957.8
2017-12-06T01:24:22.770Z,957.8
2017-12-06T01:25:30.920Z,957.7
2017-12-06T01:26:38.946Z,957.8
2017-12-06T01:27:47.154Z,957.8
2017-12-06T01:28:55.132Z,957.7
2017-12-06T01:30:03.210Z,957.8
2017-12-06T01:31:11.357Z,957.7
2017-12-06T01:32:20.554Z,957.8
2017-12-06T01:33:27.589Z,957.8
2017-12-06T01:34:35.552Z,957.8
2017-12-06T01:35:43.643Z,957.9
2017-12-06T01:36:51.732Z,957.9
2017-12-06T01:37:59.827Z,957.9
2017-12-06T01:39:08.033Z,957.9
2017-12-06T01:40:15.999Z,957.9
2017-12-06T01:41:24.088Z,957.8
2017-12-06T01:42:32.899Z,957.8
2017-12-06T01:43:40.986Z,957.8
2017-12-06T01:44:49.132Z,957.9
2017-12-06T01:45:57.160Z,957.9
2017-12-06T01:47:05.368Z,957.8
2017-12-06T01:48:13.336Z,957.9
2017-12-06T01:49:21.424Z,957.8
2017-12-06T01:50:29.636Z,957.8
2017-12-06T01:51:37.597Z,957.8
2017-12-06T01:52:45.686Z,957.8
2017-12-06T01:53:53.931Z,957.8
2017-12-06T01:55:01.860Z,957.8
2017-12-06T01:56:10.003Z,957.8
2017-12-06T01:57:18.037Z,957.8
2017-12-06T01:58:26.124Z,957.8
2017-12-06T01:59:34.306Z,957.8
2017-12-06T02:00:42.300Z,957.8
2017-12-06T02:01:50.738Z,957.8
2017-12-06T02:02:58.827Z,957.8
2017-12-06T02:04:06.793Z,957.8
2017-12-06T02:05:14.887Z,957.8
2017-12-06T02:06:22.967Z,957.7
2017-12-06T02:07:31.112Z,957.7
2017-12-06T02:08:39.142Z,957.7
2017-12-06T02:09:47.424Z,957.8
2017-12-06T02:10:55.326Z,957.8
2017-12-06T02:12:03.407Z,957.8
2017-12-06T02:13:11.616Z,957.8
2017-12-06T02:14:19.778Z,957.7
2017-12-06T02:15:27.670Z,957.8
2017-12-06T02:16:35.836Z,957.8
2017-12-06T02:17:43.842Z,957.8
2017-12-06T02:18:52.052Z,957.8
2017-12-06T02:20:00.020Z,957.8
2017-12-06T02:21:08.106Z,957.8
2017-12-06T02:22:16.194Z,957.7
2017-12-06T02:23:24.283Z,957.8
2017-12-06T02:24:32.611Z,957.7
2017-12-06T02:25:40.459Z,957.7
2017-12-06T02:26:48.544Z,957.7
2017-12-06T02:27:56.644Z,957.7
2017-12-06T02:29:04.728Z,957.7
2017-12-06T02:30:12.940Z,957.7
2017-12-06T02:31:20.905Z,957.7
2017-12-06T02:32:28.996Z,957.7
2017-12-06T02:33:37.087Z,957.7
2017-12-06T02:34:45.296Z,957.7
2017-12-06T02:35:54.024Z,957.7
2017-12-06T02:37:01.908Z,957.7
2017-12-06T02:38:10.000Z,957.7
2017-12-06T02:39:18.088Z,957.7
2017-12-06T02:40:26.305Z,957.7
2017-12-06T02:41:34.385Z,957.7
2017-12-06T02:42:42.348Z,957.7
2017-12-06T02:43:50.436Z,957.7
2017-12-06T02:44:58.527Z,957.7
2017-12-06T02:46:06.614Z,957.7
2017-12-06T02:47:14.821Z,957.7
2017-12-06T02:48:22.790Z,957.7
2017-12-06T02:49:30.890Z,957.7
2017-12-06T02:50:39.068Z,957.6
2017-12-06T02:51:47.051Z,957.6
2017-12-06T02:52:55.257Z,957.7
2017-12-06T02:54:03.426Z,957.6
2017-12-06T02:55:11.313Z,957.6
2017-12-06T02:56:19.401Z,957.6
2017-12-06T02:57:27.489Z,957.6
2017-12-06T02:58:35.887Z,957.6
2017-12-06T02:59:43.662Z,957.6
2017-12-06T03:00:51.748Z,957.5
2017-12-06T03:01:59.835Z,957.6
2017-12-06T03:03:08.011Z,957.5
2017-12-06T03:04:16.066Z,957.5
2017-12-06T03:05:24.098Z,957.5
2017-12-06T03:06:32.306Z,957.5
2017-12-06T03:07:40.277Z,957.5
2017-12-06T03:08:48.375Z,957.5
2017-12-06T03:09:56.581Z,957.5
2017-12-06T03:11:04.547Z,957.5
2017-12-06T03:12:12.803Z,957.5
2017-12-06T03:13:20.847Z,957.6
2017-12-06T03:14:28.817Z,957.5
2017-12-06T03:15:37.033Z,957.5
2017-12-06T03:16:44.992Z,957.6
2017-12-06T03:17:53.079Z,957.5
2017-12-06T03:19:01.168Z,957.6
2017-12-06T03:20:09.253Z,957.6
2017-12-06T03:21:17.405Z,957.5
2017-12-06T03:22:25.658Z,957.5
2017-12-06T03:23:33.521Z,957.5
2017-12-06T03:24:41.606Z,957.5
2017-12-06T03:25:49.866Z,957.5
2017-12-06T03:26:57.901Z,957.5
2017-12-06T03:28:05.890Z,957.5
2017-12-06T03:29:13.966Z,957.5
2017-12-06T03:30:22.075Z,957.5
2017-12-06T03:31:30.138Z,957.5
2017-12-06T03:32:38.356Z,957.5
2017-12-06T03:33:46.321Z,957.4
2017-12-06T03:34:54.555Z,957.5
2017-12-06T03:36:02.663Z,957.4
2017-12-06T03:37:10.588Z,957.4
2017-12-06T03:38:18.790Z,957.5
2017-12-06T03:39:26.885Z,957.4
2017-12-06T03:40:34.898Z,957.4
2017-12-06T03:41:42.933Z,957.4
2017-12-06T03:42:51.028Z,957.4
2017-12-06T03:43:59.396Z,957.4
2017-12-06T03:45:07.348Z,957.5
2017-12-06T03:46:15.290Z,957.4
2017-12-06T03:47:23.380Z,957.4
2017-12-06T03:48:31.466Z,957.4
2017-12-06T03:49:39.720Z,957.4
2017-12-06T03:50:47.638Z,957.4
2017-12-06T03:51:55.726Z,957.4
2017-12-06T03:53:03.814Z,957.4
2017-12-06T03:54:12.020Z,957.3
2017-12-06T03:55:20.106Z,957.4
2017-12-06T03:56:28.074Z,957.4
2017-12-06T03:57:36.158Z,957.3
2017-12-06T03:58:44.246Z,957.3
2017-12-06T03:59:52.332Z,957.3
2017-12-06T04:01:00.475Z,957.3
2017-12-06T04:02:08.504Z,957.3
2017-12-06T04:03:16.716Z,957.3
2017-12-06T04:04:24.679Z,957.3
2017-12-06T04:05:32.773Z,957.3
2017-12-06T04:06:40.970Z,957.3
2017-12-06T04:07:48.968Z,957.3
2017-12-06T04:08:57.024Z,957.3
2017-12-06T04:10:05.231Z,957.3
2017-12-06T04:11:13.199Z,957.3
2017-12-06T04:12:21.387Z,957.3
2017-12-06T04:13:29.372Z,957.3
2017-12-06T04:14:37.458Z,957.3
2017-12-06T04:15:45.551Z,957.3
2017-12-06T04:16:53.678Z,957.3
2017-12-06T04:18:01.849Z,957.3
2017-12-06T04:19:09.813Z,957.3
2017-12-06T04:20:17.909Z,957.3
2017-12-06T04:21:25.996Z,957.3
2017-12-06T04:22:34.090Z,957.2
2017-12-06T04:23:42.302Z,957.3
2017-12-06T04:24:50.262Z,957.2
2017-12-06T04:25:58.932Z,957.2
2017-12-06T04:27:06.962Z,957.3
2017-12-06T04:28:15.047Z,957.3
2017-12-06T04:29:23.257Z,957.2
2017-12-06T04:30:31.222Z,957.2
2017-12-06T04:31:39.307Z,957.2
2017-12-06T04:32:47.393Z,957.2
2017-12-06T04:33:55.480Z,957.2
2017-12-06T04:35:03.689Z,957.2
2017-12-06T04:36:11.652Z,957.2
2017-12-06T04:37:19.738Z,957.2
2017-12-06T04:38:27.860Z,957.2
2017-12-06T04:39:35.909Z,957.2
2017-12-06T04:40:44.055Z,957.2
2017-12-06T04:41:52.203Z,957.2
2017-12-06T04:43:00.198Z,957.2
2017-12-06T04:44:08.256Z,957.2
2017-12-06T04:45:16.342Z,957.2
2017-12-06T04:46:24.713Z,957.2
2017-12-06T04:47:32.512Z,957.2
2017-12-06T04:48:40.605Z,957.2
2017-12-06T04:49:48.693Z,957.2
2017-12-06T04:50:56.958Z,957.2
2017-12-06T04:52:04.922Z,957.2
2017-12-06T04:53:12.950Z,957.2
2017-12-06T04:54:21.043Z,957.2
2017-12-06T04:55:29.128Z,957.2
2017-12-06T04:56:37.635Z,957.2
2017-12-06T04:57:45.835Z,957.2
2017-12-06T04:58:53.920Z,957.2
2017-12-06T05:00:01.894Z,957.2
2017-12-06T05:01:09.981Z,957.2
2017-12-06T05:02:18.069Z,957.2
2017-12-06T05:03:26.381Z,957.2
2017-12-06T05:04:34.237Z,957.2
2017-12-06T05:05:42.374Z,957.2
2017-12-06T05:06:50.411Z,957.2
2017-12-06T05:07:58.498Z,957.2
2017-12-06T05:09:06.710Z,957.2
2017-12-06T05:10:14.786Z,957.2
2017-12-06T05:11:22.876Z,957.2
2017-12-06T05:12:30.968Z,957.2
2017-12-06T05:13:39.172Z,957.2
2017-12-06T05:14:47.258Z,957.2
2017-12-06T05:15:55.222Z,957.3
2017-12-06T05:17:03.404Z,957.3
2017-12-06T05:18:11.395Z,957.3
2017-12-06T05:19:19.483Z,957.3
2017-12-06T05:20:27.627Z,957.3
2017-12-06T05:21:35.849Z,957.3
2017-12-06T05:22:43.828Z,957.3
2017-12-06T05:23:51.932Z,957.3
2017-12-06T05:25:00.004Z,957.3
2017-12-06T05:26:08.204Z,957.2
2017-12-06T05:27:16.168Z,957.3
2017-12-06T05:28:24.259Z,957.3
2017-12-06T05:29:32.397Z,957.3
2017-12-06T05:30:40.527Z,957.3
2017-12-06T05:31:48.630Z,957.3
2017-12-06T05:32:56.600Z,957.3
2017-12-06T05:34:04.684Z,957.2
2017-12-06T05:35:12.786Z,957.2
2017-12-06T05:36:20.856Z,957.2
2017-12-06T05:37:29.063Z,957.2
2017-12-06T05:38:37.039Z,957.2
2017-12-06T05:39:45.323Z,957.2
2017-12-06T05:40:53.363Z,957.2
2017-12-06T05:42:01.344Z,957.2
2017-12-06T05:43:09.475Z,957.1
2017-12-06T05:44:17.704Z,957.2
2017-12-06T05:45:25.712Z,957.1
2017-12-06T05:46:33.679Z,957.1
2017-12-06T05:47:41.765Z,957.1
2017-12-06T05:48:50.072Z,957.0
2017-12-06T05:49:57.936Z,957.0
2017-12-06T05:51:06.048Z,957.1
2017-12-06T05:52:14.150Z,957.1
2017-12-06T05:53:22.202Z,957.1
2017-12-06T05:54:30.833Z,957.1
2017-12-06T05:55:38.421Z,957.1
2017-12-06T05:56:46.468Z,957.1
2017-12-06T05:57:54.559Z,957.2
2017-12-06T05:59:02.647Z,957.1
2017-12-06T06:00:10.853Z,957.1
2017-12-06T06:01:18.875Z,957.2
2017-12-06T06:02:27.049Z,957.2
2017-12-06T06:03:35.075Z,957.1
2017-12-06T06:04:43.158Z,957.1
2017-12-06T06:05:51.364Z,957.1
2017-12-06T06:06:59.336Z,957.1
2017-12-06T06:08:07.416Z,957.0
2017-12-06T06:09:15.501Z,957.0
2017-12-06T06:10:23.589Z,957.0
2017-12-06T06:11:31.844Z,957.0
2017-12-06T06:12:39.758Z,957.0
2017-12-06T06:13:47.850Z,957.0
2017-12-06T06:14:55.930Z,957.0
2017-12-06T06:16:04.082Z,957.0
2017-12-06T06:17:12.250Z,957.0
2017-12-06T06:18:20.186Z,957.0
2017-12-06T06:19:28.275Z,957.0
2017-12-06T06:20:36.356Z,957.0
2017-12-06T06:21:44.443Z,957.0
2017-12-06T06:22:52.645Z,957.0
2017-12-06T06:24:00.612Z,956.9
2017-12-06T06:25:08.865Z,956.9
2017-12-06T06:26:16.804Z,956.9
2017-12-06T06:27:24.871Z,956.9
2017-12-06T06:28:33.079Z,956.9
2017-12-06T06:29:41.043Z,956.9
2017-12-06T06:30:49.129Z,956.9
2017-12-06T06:31:57.213Z,956.9
2017-12-06T06:33:05.419Z,956.9
2017-12-06T06:34:13.504Z,956.9
2017-12-06T06:35:21.488Z,956.9
2017-12-06T06:36:29.553Z,956.9
2017-12-06T06:37:37.644Z,956.9
2017-12-06T06:38:45.723Z,956.9
2017-12-06T06:39:54.027Z,956.9
2017-12-06T06:41:01.896Z,956.9
2017-12-06T06:42:09.981Z,956.9
2017-12-06T06:43:18.079Z,956.9
2017-12-06T06:44:26.268Z,956.9
2017-12-06T06:45:34.290Z,957.0
2017-12-06T06:46:42.324Z,956.9
2017-12-06T06:47:50.410Z,957.0
2017-12-06T06:48:58.613Z,956.9
2017-12-06T06:50:06.583Z,956.9
2017-12-06T06:51:14.784Z,956.9
2017-12-06T06:52:22.756Z,956.9
2017-12-06T06:53:30.931Z,957.0
2017-12-06T06:54:38.920Z,956.9
2017-12-06T06:55:47.007Z,956.9
2017-12-06T06:56:55.158Z,956.9
2017-12-06T06:58:03.187Z,957.0
2017-12-06T06:59:11.273Z,957.0
2017-12-06T07:00:19.362Z,957.0
2017-12-06T07:01:27.444Z,957.0
2017-12-06T07:02:35.846Z,957.0
2017-12-06T07:03:43.619Z,956.9
2017-12-06T07:04:51.823Z,957.0
2017-12-06T07:05:59.790Z,957.0
2017-12-06T07:07:07.903Z,957.0
2017-12-06T07:08:16.095Z,957.0
2017-12-06T07:09:24.047Z,957.1
2017-12-06T07:10:32.130Z,957.1
2017-12-06T07:11:40.215Z,957.1
2017-12-06T07:12:48.302Z,957.1
2017-12-06T07:13:56.444Z,957.1
2017-12-06T07:15:04.473Z,957.1
2017-12-06T07:16:12.567Z,957.1
2017-12-06T07:17:20.713Z,957.1
2017-12-06T07:18:28.858Z,957.2
2017-12-06T07:19:36.822Z,957.2
2017-12-06T07:20:45.025Z,957.2
2017-12-06T07:21:52.988Z,957.3
2017-12-06T07:23:01.074Z,957.3
2017-12-06T07:24:09.217Z,957.2
2017-12-06T07:25:17.252Z,957.3
2017-12-06T07:26:25.401Z,957.2
2017-12-06T07:27:33.417Z,957.2
2017-12-06T07:28:41.503Z,957.2
2017-12-06T07:29:49.719Z,957.2
2017-12-06T07:30:57.672Z,957.2
2017-12-06T07:32:05.759Z,957.2
2017-12-06T07:33:13.847Z,957.2
2017-12-06T07:34:21.936Z,957.2
2017-12-06T07:35:30.138Z,957.2
2017-12-06T07:36:38.160Z,957.2
2017-12-06T07:37:46.190Z,957.2
2017-12-06T07:38:54.273Z,957.2
2017-12-06T07:40:02.420Z,957.2
2017-12-06T07:41:10.568Z,957.2
2017-12-06T07:42:18.532Z,957.2
2017-12-06T07:43:26.617Z,957.2
2017-12-06T07:44:34.703Z,957.2
2017-12-06T07:45:42.791Z,957.2
2017-12-06T07:46:50.931Z,957.2
2017-12-06T07:47:58.964Z,957.2
2017-12-06T07:49:07.046Z,957.2
2017-12-06T07:50:15.142Z,957.3
2017-12-06T07:51:23.338Z,957.2
2017-12-06T07:52:31.359Z,957.2
2017-12-06T07:53:39.585Z,957.2
2017-12-06T07:54:47.476Z,957.2
2017-12-06T07:55:55.561Z,957.2
2017-12-06T07:57:03.647Z,957.2
2017-12-06T07:58:11.959Z,957.2
2017-12-06T07:59:19.817Z,957.2
2017-12-06T08:00:27.901Z,957.2
2017-12-06T08:01:35.985Z,957.1
2017-12-06T08:02:44.075Z,957.1
2017-12-06T08:03:52.310Z,957.1
2017-12-06T08:05:00.253Z,957.1
2017-12-06T08:06:08.338Z,957.1
2017-12-06T08:07:16.480Z,957.1
2017-12-06T08:08:24.751Z,957.0
2017-12-06T08:09:32.965Z,957.1
2017-12-06T08:10:40.924Z,957.0
2017-12-06T08:11:49.008Z,957.0
2017-12-06T08:12:57.107Z,957.0
2017-12-06T08:14:05.181Z,957.0
2017-12-06T08:15:13.329Z,957.0
2017-12-06T08:16:21.393Z,957.0
2017-12-06T08:17:29.436Z,957.0
2017-12-06T08:18:37.534Z,957.0
2017-12-06T08:19:45.810Z,957.0
2017-12-06T08:20:54.010Z,957.0
2017-12-06T08:22:01.979Z,957.0
2017-12-06T08:23:10.119Z,957.0
2017-12-06T08:24:18.149Z,957.0
2017-12-06T08:25:26.236Z,957.0
2017-12-06T08:26:34.450Z,957.0
2017-12-06T08:27:42.413Z,957.0
2017-12-06T08:28:50.499Z,956.9
2017-12-06T08:29:58.582Z,956.9
2017-12-06T08:31:06.670Z,957.0
2017-12-06T08:32:14.813Z,957.0
2017-12-06T08:33:22.841Z,957.0
2017-12-06T08:34:30.926Z,957.0
2017-12-06T08:35:39.013Z,957.0
2017-12-06T08:36:47.100Z,957.0
2017-12-06T08:37:55.307Z,957.0
2017-12-06T08:39:03.330Z,957.0
2017-12-06T08:40:11.357Z,957.0
2017-12-06T08:41:19.454Z,957.0
2017-12-06T08:42:27.645Z,957.0
2017-12-06T08:43:35.854Z,957.0
2017-12-06T08:44:43.827Z,956.9
2017-12-06T08:45:51.963Z,957.0
2017-12-06T08:47:00.076Z,957.0
2017-12-06T08:48:08.087Z,957.0
2017-12-06T08:49:16.229Z,957.0
2017-12-06T08:50:24.316Z,957.0
2017-12-06T08:51:32.423Z,957.0
2017-12-06T08:52:40.433Z,957.0
2017-12-06T08:53:48.516Z,957.1
2017-12-06T08:54:56.722Z,957.0
2017-12-06T08:56:04.847Z,957.1
2017-12-06T08:57:12.772Z,957.1
2017-12-06T08:58:20.860Z,957.1
2017-12-06T08:59:28.948Z,957.1
2017-12-06T09:00:37.092Z,957.1
2017-12-06T09:01:45.119Z,957.1
2017-12-06T09:02:53.204Z,957.1
2017-12-06T09:04:01.290Z,957.1
2017-12-06T09:05:09.375Z,957.1
2017-12-06T09:06:17.583Z,957.1
2017-12-06T09:07:25.548Z,957.1
2017-12-06T09:08:33.640Z,957.2
2017-12-06T09:09:41.905Z,957.2
2017-12-06T09:10:49.886Z,957.2
2017-12-06T09:11:58.027Z,957.2
2017-12-06T09:13:05.990Z,957.2
2017-12-06T09:14:14.254Z,957.2
2017-12-06T09:15:22.162Z,957.2
2017-12-06T09:16:30.245Z,957.2
2017-12-06T09:17:38.461Z,957.1
2017-12-06T09:18:46.415Z,957.1
2017-12-06T09:19:54.543Z,957.1
2017-12-06T09:21:02.589Z,957.0
2017-12-06T09:22:10.676Z,957.1
2017-12-06T09:23:18.883Z,957.1
2017-12-06T09:24:26.967Z,957.1
2017-12-06T09:25:34.945Z,957.1
2017-12-06T09:26:43.076Z,957.1
2017-12-06T09:27:51.110Z,957.1
2017-12-06T09:28:59.428Z,957.1
2017-12-06T09:30:07.283Z,957.1
2017-12-06T09:31:15.369Z,957.1
2017-12-06T09:32:23.452Z,957.1
2017-12-06T09:33:31.654Z,957.1
2017-12-06T09:34:39.682Z,957.1
2017-12-06T09:35:47.709Z,957.1
2017-12-06T09:36:55.795Z,957.1
2017-12-06T09:38:03.882Z,957.1
2017-12-06T09:39:11.970Z,957.1
2017-12-06T09:40:20.112Z,957.1
2017-12-06T09:41:28.143Z,957.1
2017-12-06T09:42:36.405Z,957.0
2017-12-06T09:43:44.318Z,957.0
2017-12-06T09:44:52.402Z,957.0
2017-12-06T09:46:00.543Z,957.0
2017-12-06T09:47:08.611Z,957.0
2017-12-06T09:48:16.659Z,957.0
2017-12-06T09:49:24.741Z,957.0
2017-12-06T09:50:32.829Z,957.0
2017-12-06T09:51:40.972Z,957.1
2017-12-06T09:52:49.004Z,957.1
2017-12-06T09:53:57.086Z,957.1
2017-12-06T09:55:05.171Z,957.1
2017-12-06T09:56:13.401Z,957.1
2017-12-06T09:57:21.471Z,957.1
2017-12-06T09:58:29.551Z,957.1
2017-12-06T09:59:37.514Z,957.1
2017-12-06T10:00:45.728Z,957.0
2017-12-06T10:01:53.687Z,957.0
2017-12-06T10:03:01.835Z,957.0
2017-12-06T10:04:09.859Z,956.9
2017-12-06T10:05:17.940Z,956.9
2017-12-06T10:06:26.026Z,956.9
2017-12-06T10:07:34.112Z,956.9
2017-12-06T10:08:42.392Z,956.9
2017-12-06T10:09:50.708Z,956.9
2017-12-06T10:10:58.681Z,956.8
2017-12-06T10:12:06.765Z,956.8
2017-12-06T10:13:14.861Z,956.8
2017-12-06T10:14:22.988Z,956.8
2017-12-06T10:15:31.017Z,956.8
2017-12-06T10:16:39.108Z,956.8
2017-12-06T10:17:47.193Z,956.8
2017-12-06T10:18:55.323Z,956.8
2017-12-06T10:20:03.485Z,956.7
2017-12-06T10:21:11.452Z,956.7
2017-12-06T10:22:19.537Z,956.7
2017-12-06T10:23:27.676Z,956.7
2017-12-06T10:24:35.762Z,956.7
2017-12-06T10:25:43.845Z,956.7
2017-12-06T10:26:51.879Z,956.7
2017-12-06T10:28:00.025Z,956.6
2017-12-06T10:29:08.048Z,956.7
2017-12-06T10:30:16.252Z,956.7
2017-12-06T10:31:24.276Z,956.6
2017-12-06T10:32:32.380Z,956.7
2017-12-06T10:33:40.386Z,956.6
2017-12-06T10:34:48.474Z,956.6
2017-12-06T10:35:56.562Z,956.6
2017-12-06T10:37:04.842Z,956.6
2017-12-06T10:38:12.731Z,956.7
2017-12-06T10:39:20.815Z,956.7
2017-12-06T10:40:28.899Z,956.6
2017-12-06T10:41:36.986Z,956.6
2017-12-06T10:42:45.125Z,956.6
2017-12-06T10:43:53.156Z,956.7
2017-12-06T10:45:01.238Z,956.7
2017-12-06T10:46:09.615Z,956.7
2017-12-06T10:47:17.438Z,956.7
2017-12-06T10:48:25.554Z,956.7
2017-12-06T10:49:33.606Z,956.7
2017-12-06T10:50:41.670Z,956.6
2017-12-06T10:51:49.876Z,956.6
2017-12-06T10:52:57.838Z,956.6
2017-12-06T10:54:06.043Z,956.6
2017-12-06T10:55:14.009Z,956.6
2017-12-06T10:56:22.094Z,956.6
2017-12-06T10:57:30.180Z,956.6
2017-12-06T10:58:38.282Z,956.5
2017-12-06T10:59:46.490Z,956.6
2017-12-06T11:00:54.462Z,956.5
2017-12-06T11:02:02.678Z,956.5
2017-12-06T11:03:10.650Z,956.5
2017-12-06T11:04:18.737Z,956.5
2017-12-06T11:05:26.967Z,956.5
2017-12-06T11:06:34.908Z,956.5
2017-12-06T11:07:42.994Z,956.4
2017-12-06T11:08:51.084Z,956.4
2017-12-06T11:09:59.165Z,956.4
2017-12-06T11:11:07.369Z,956.4
2017-12-06T11:12:15.336Z,956.4
2017-12-06T11:13:23.424Z,956.3
2017-12-06T11:14:31.506Z,956.3
2017-12-06T11:15:39.606Z,956.3
2017-12-06T11:16:47.745Z,956.3
2017-12-06T11:17:55.895Z,956.3
2017-12-06T11:19:03.863Z,956.3
2017-12-06T11:20:11.950Z,956.3
2017-12-06T11:21:20.037Z,956.3
2017-12-06T11:22:28.178Z,956.3
2017-12-06T11:23:36.288Z,956.3
2017-12-06T11:24:44.292Z,956.3
2017-12-06T11:25:52.376Z,956.3
2017-12-06T11:27:00.459Z,956.3
2017-12-06T11:28:08.848Z,956.3
2017-12-06T11:29:16.631Z,956.3
2017-12-06T11:30:24.716Z,956.3
2017-12-06T11:31:32.803Z,956.2
2017-12-06T11:32:40.978Z,956.3
2017-12-06T11:33:49.028Z,956.2
2017-12-06T11:34:57.056Z,956.2
2017-12-06T11:36:05.139Z,956.2
2017-12-06T11:37:13.225Z,956.2
2017-12-06T11:38:21.308Z,956.2
2017-12-06T11:39:29.518Z,956.2
2017-12-06T11:40:37.481Z,956.2
2017-12-06T11:41:45.663Z,956.1
2017-12-06T11:42:53.649Z,956.1
2017-12-06T11:44:01.735Z,956.1
2017-12-06T11:45:09.931Z,956.1
2017-12-06T11:46:17.902Z,956.1
2017-12-06T11:47:25.987Z,956.1
2017-12-06T11:48:34.211Z,956.1
2017-12-06T11:49:42.413Z,956.0
2017-12-06T11:50:50.655Z,956.0
2017-12-06T11:51:58.469Z,956.0
2017-12-06T11:53:06.551Z,956.0
2017-12-06T11:54:14.634Z,956.0
2017-12-06T11:55:22.879Z,955.9
2017-12-06T11:56:30.925Z,955.9
2017-12-06T11:57:38.888Z,955.9
2017-12-06T11:58:46.973Z,955.9
2017-12-06T11:59:55.212Z,956.0
2017-12-06T12:01:03.141Z,955.9
2017-12-06T12:02:11.284Z,956.0
2017-12-06T12:03:19.314Z,956.0
2017-12-06T12:04:27.576Z,956.0
2017-12-06T12:05:35.624Z,956.0
2017-12-06T12:06:43.565Z,956.0
2017-12-06T12:07:51.770Z,956.0
2017-12-06T12:08:59.735Z,956.0
2017-12-06T12:10:07.822Z,956.0
2017-12-06T12:11:15.906Z,956.0
2017-12-06T12:12:23.994Z,956.0
2017-12-06T12:13:32.132Z,956.0
2017-12-06T12:14:40.278Z,956.0
2017-12-06T12:15:48.244Z,956.0
2017-12-06T12:16:56.331Z,956.0
2017-12-06T12:18:04.592Z,956.0
2017-12-06T12:19:12.620Z,955.9
2017-12-06T12:20:20.640Z,956.0
2017-12-06T12:21:28.727Z,955.9
2017-12-06T12:22:36.922Z,955.9
2017-12-06T12:23:44.894Z,955.9
2017-12-06T12:24:52.977Z,955.9
2017-12-06T12:26:01.006Z,955.9
2017-12-06T12:27:09.089Z,955.9
2017-12-06T12:28:17.177Z,955.9
2017-12-06T12:29:25.261Z,955.9
2017-12-06T12:30:33.402Z,955.9
2017-12-06T12:31:41.430Z,955.9
2017-12-06T12:32:49.514Z,955.8
2017-12-06T12:33:57.597Z,955.8
2017-12-06T12:35:05.682Z,955.8
2017-12-06T12:36:13.822Z,955.8
2017-12-06T12:37:21.971Z,955.8
2017-12-06T12:38:29.936Z,955.8
2017-12-06T12:39:38.023Z,955.8
2017-12-06T12:40:46.107Z,955.8
2017-12-06T12:41:54.467Z,955.8
2017-12-06T12:43:02.394Z,955.8
2017-12-06T12:44:10.359Z,955.8
2017-12-06T12:45:18.442Z,955.8
2017-12-06T12:46:26.716Z,955.7
2017-12-06T12:47:34.676Z,955.7
2017-12-06T12:48:42.711Z,955.7
2017-12-06T12:49:50.792Z,955.7
2017-12-06T12:50:58.876Z,955.6
2017-12-06T12:52:06.959Z,955.6
2017-12-06T12:53:15.167Z,955.6
2017-12-06T12:54:23.165Z,955.6
2017-12-06T12:55:31.369Z,955.6
2017-12-06T12:56:39.295Z,955.5
2017-12-06T12:57:47.387Z,955.6
2017-12-06T12:58:55.585Z,955.5
2017-12-06T13:00:03.550Z,955.5
2017-12-06T13:01:11.634Z,955.5
2017-12-06T13:02:19.718Z,955.5
2017-12-06T13:03:27.811Z,955.5
2017-12-06T13:04:36.090Z,955.5
2017-12-06T13:05:43.973Z,955.5
2017-12-06T13:06:52.067Z,955.5
2017-12-06T13:08:00.150Z,955.5
2017-12-06T13:09:08.481Z,955.5
2017-12-06T13:10:16.450Z,955.4
2017-12-06T13:11:24.479Z,955.4
2017-12-06T13:12:32.513Z,955.4
2017-12-06T13:13:40.593Z,955.4
2017-12-06T13:14:48.694Z,955.4
2017-12-06T13:15:56.881Z,955.4
2017-12-06T13:17:04.845Z,955.4
2017-12-06T13:18:12.926Z,955.4
2017-12-06T13:19:21.014Z,955.4
2017-12-06T13:20:29.098Z,955.4
2017-12-06T13:21:37.242Z,955.3
2017-12-06T13:22:45.277Z,955.3
2017-12-06T13:23:54.875Z,955.3
2017-12-06T13:25:03.077Z,955.3
2017-12-06T13:26:11.039Z,955.3
2017-12-06T13:27:19.246Z,955.3
2017-12-06T13:28:27.219Z,955.3
2017-12-06T13:29:35.295Z,955.3
2017-12-06T13:30:43.378Z,955.3
2017-12-06T13:31:51.461Z,955.3
2017-12-06T13:32:59.604Z,955.3
2017-12-06T13:34:07.628Z,955.3
2017-12-06T13:35:15.715Z,955.2
2017-12-06T13:36:23.960Z,955.3
2017-12-06T13:37:31.885Z,955.2
2017-12-06T13:38:40.086Z,955.2
2017-12-06T13:39:48.053Z,955.2
2017-12-06T13:40:56.247Z,955.2
2017-12-06T13:42:04.219Z,955.2
2017-12-06T13:43:12.304Z,955.1
2017-12-06T13:44:20.509Z,955.2
2017-12-06T13:45:28.935Z,955.2
2017-12-06T13:46:36.828Z,955.1
2017-12-06T13:47:44.899Z,955.1
2017-12-06T13:48:53.046Z,955.1
2017-12-06T13:50:01.186Z,955.1
2017-12-06T13:51:09.154Z,955.1
2017-12-06T13:52:17.235Z,955.2
2017-12-06T13:53:25.322Z,955.1
2017-12-06T13:54:33.407Z,955.2
2017-12-06T13:55:41.609Z,955.1
2017-12-06T13:56:49.952Z,955.2
2017-12-06T13:57:57.867Z,955.2
2017-12-06T13:59:05.804Z,955.2
2017-12-06T14:00:13.887Z,955.2
2017-12-06T14:01:22.091Z,955.2
2017-12-06T14:02:30.091Z,955.1
2017-12-06T14:03:38.140Z,955.1
2017-12-06T14:04:46.220Z,955.1
2017-12-06T14:05:54.305Z,955.1
2017-12-06T14:07:02.611Z,955.1
2017-12-06T14:08:10.475Z,955.2
2017-12-06T14:09:18.559Z,955.2
2017-12-06T14:10:26.641Z,955.2
2017-12-06T14:11:34.726Z,955.2
2017-12-06T14:12:42.938Z,955.2
2017-12-06T14:13:50.901Z,955.2
2017-12-06T14:14:58.987Z,955.2
2017-12-06T14:16:07.075Z,955.2
2017-12-06T14:17:15.194Z,955.2
2017-12-06T14:18:23.295Z,955.2
2017-12-06T14:19:31.396Z,955.2
2017-12-06T14:20:39.591Z,955.2
2017-12-06T14:21:47.567Z,955.2
2017-12-06T14:22:55.650Z,955.2
2017-12-06T14:24:03.854Z,955.2
2017-12-06T14:25:11.819Z,955.1
2017-12-06T14:26:19.903Z,955.1
2017-12-06T14:27:27.988Z,955.1
2017-12-06T14:28:36.192Z,955.1
2017-12-06T14:29:44.209Z,955.1
2017-12-06T14:30:52.237Z,955.1
2017-12-06T14:32:00.320Z,955.1
2017-12-06T14:33:08.410Z,955.1
2017-12-06T14:34:16.702Z,955.1
2017-12-06T14:35:24.698Z,955.1
2017-12-06T14:36:32.703Z,955.1